Time;durP1;ratioP1;P1;durP2;ratioP2;P2;SDS_P1;SDS_P2;PMS_P1;PMS_P2;Temp;Humidity;BMP_temperature;BMP_pressure;BME280_temperature;BME280_humidity;BME280_pressure;Samples;Min_cycle;Max_cycle;Signal;HPM_P1;HPM_P2
2023/04/07 00:00:25;;;;;;;186.73;173.03;;;6.70;30.70;;;;;;5031614;28;20182;-70
2023/04/07 00:02:51;;;;;;;211.90;196.13;;;6.70;29.50;;;;;;5031031;28;20182;-70
2023/04/07 00:05:16;;;;;;;282.50;262.03;;;6.80;29.30;;;;;;5032835;28;20413;-69
2023/04/07 00:07:42;;;;;;;159.57;146.40;;;6.70;29.00;;;;;;5032043;28;20223;-69
2023/04/07 00:10:08;;;;;;;164.50;149.90;;;6.60;29.40;;;;;;5031601;28;20258;-70
2023/04/07 00:12:34;;;;;;;227.00;209.80;;;6.70;29.30;;;;;;5032822;28;20233;-70
2023/04/07 00:15:00;;;;;;;479.63;447.43;;;6.70;29.50;;;;;;5031109;28;20465;-70
2023/04/07 00:17:25;;;;;;;267.90;249.40;;;6.70;25.40;;;;;;5032207;28;20791;-70
2023/04/07 00:19:51;;;;;;;252.53;233.37;;;6.70;20.70;;;;;;5032117;28;20164;-70
2023/04/07 00:22:17;;;;;;;196.70;182.07;;;6.70;19.80;;;;;;5031971;28;20235;-69
2023/04/07 00:24:42;;;;;;;174.73;160.03;;;6.60;19.90;;;;;;5032003;28;20171;-69
2023/04/07 00:27:08;;;;;;;195.90;180.07;;;6.60;20.10;;;;;;5031696;28;20700;-70
2023/04/07 00:29:34;;;;;;;247.67;229.80;;;;;;;;;;5032195;28;20175;-70
2023/04/07 00:32:00;;;;;;;336.60;312.30;;;;;;;;;;5031727;28;20212;-70
2023/04/07 00:34:25;;;;;;;260.37;242.40;;;;;;;;;;5032533;28;20555;-70
2023/04/07 00:36:51;;;;;;;373.03;348.13;;;6.60;20.80;;;;;;5031935;28;20439;-70
2023/04/07 00:39:17;;;;;;;407.93;377.27;;;6.40;20.60;;;;;;5030852;28;20433;-70
2023/04/07 00:41:44;;;;;;;210.93;194.53;;;6.40;21.00;;;;;;5031110;28;20182;-70
2023/04/07 00:44:10;;;;;;;173.90;159.63;;;6.40;21.00;;;;;;5032569;28;20945;-70
2023/04/07 00:46:35;;;;;;;249.53;231.40;;;6.40;21.10;;;;;;5032388;28;20513;-70
2023/04/07 00:49:01;;;;;;;215.93;199.47;;;;;;;;;;5031950;28;20506;-70
2023/04/07 00:51:27;;;;;;;546.53;508.67;;;6.40;21.10;;;;;;5031614;28;20549;-70
2023/04/07 00:53:54;;;;;;;191.77;175.83;;;6.40;22.60;;;;;;5031755;28;20418;-70
2023/04/07 00:56:19;;;;;;;260.60;241.33;;;6.40;21.00;;;;;;5031763;28;20210;-69
2023/04/07 00:58:45;;;;;;;367.77;342.00;;;6.40;20.80;;;;;;5031995;28;20433;-70
2023/04/07 01:01:32;;;;;;;269.80;250.00;;;6.40;21.00;;;;;;5031947;28;20229;-71
2023/04/07 01:04:06;;;;;;;248.50;229.47;;;6.50;19.70;;;;;;5032410;28;20575;-70
2023/04/07 01:06:37;;;;;;;172.93;159.20;;;6.50;19.40;;;;;;5032243;28;20435;-69
2023/04/07 01:09:25;;;;;;;288.47;267.53;;;;;;;;;;5032451;28;20412;-70
2023/04/07 01:12:07;;;;;;;236.17;217.23;;;;;;;;;;5030481;28;20414;-70
2023/04/07 01:14:37;;;;;;;286.43;266.63;;;;;;;;;;5032053;28;20409;-69
2023/04/07 01:17:04;;;;;;;225.23;207.27;;;;;;;;;;5031757;28;20803;-70
2023/04/07 01:19:38;;;;;;;150.63;137.90;;;6.50;19.60;;;;;;5030351;28;20463;-70
2023/04/07 01:22:12;;;;;;;216.63;200.40;;;7.10;47.60;;;;;;5030083;28;20414;-70
2023/04/07 01:25:01;;;;;;;284.80;264.77;;;6.80;20.20;;;;;;5031455;28;20957;-70
2023/04/07 01:27:26;;;;;;;288.13;267.20;;;6.80;18.60;;;;;;5031252;28;20457;-70
2023/04/07 01:29:53;;;;;;;317.57;295.77;;;6.70;18.20;;;;;;5031437;28;20471;-70
2023/04/07 01:32:19;;;;;;;255.20;235.63;;;6.70;18.50;;;;;;5031285;28;20182;-70
2023/04/07 01:34:48;;;;;;;383.97;357.43;;;6.80;18.20;;;;;;5031606;28;20456;-70
2023/04/07 01:37:14;;;;;;;275.50;255.23;;;6.70;17.70;;;;;;5031817;28;20472;-69
2023/04/07 01:39:40;;;;;;;263.77;242.97;;;6.70;18.10;;;;;;5034611;28;20422;-69
2023/04/07 01:42:07;;;;;;;158.43;142.30;;;6.70;18.30;;;;;;5035075;28;20418;-69
2023/04/07 01:44:33;;;;;;;189.77;175.30;;;6.70;18.50;;;;;;5035597;28;20184;-68
2023/04/07 01:46:59;;;;;;;329.60;306.27;;;6.70;18.20;;;;;;5035691;28;20961;-69
2023/04/07 01:49:26;;;;;;;305.37;284.13;;;6.70;17.90;;;;;;5035460;28;20413;-70
2023/04/07 01:51:53;;;;;;;251.80;233.57;;;6.70;18.30;;;;;;5035297;28;20417;-69
2023/04/07 01:54:20;;;;;;;290.07;268.50;;;6.70;17.70;;;;;;5034699;28;21032;-69
2023/04/07 01:56:45;;;;;;;192.53;178.30;;;6.70;17.60;;;;;;5034708;28;20476;-70
2023/04/07 01:59:11;;;;;;;331.40;307.67;;;6.70;18.10;;;;;;5034149;28;20426;-70
2023/04/07 02:01:37;;;;;;;288.57;267.93;;;6.70;18.10;;;;;;5034480;28;20233;-70
2023/04/07 02:04:17;;;;;;;330.50;306.73;;;6.70;17.50;;;;;;5033547;28;20178;-69
2023/04/07 02:06:55;;;;;;;269.27;250.30;;;6.80;16.80;;;;;;5034724;28;20285;-70
2023/04/07 02:09:23;;;;;;;301.37;279.90;;;6.80;17.80;;;;;;5034526;28;20776;-70
2023/04/07 02:11:50;;;;;;;301.90;281.33;;;6.70;17.40;;;;;;5033130;28;20421;-70
2023/04/07 02:14:16;;;;;;;184.67;169.77;;;6.80;17.60;;;;;;5037413;28;20927;-70
2023/04/07 02:16:43;;;;;;;212.50;196.17;;;6.90;17.60;;;;;;5035092;28;20496;-70
2023/04/07 02:19:09;;;;;;;94.37;70.30;;;6.80;17.50;;;;;;5034770;28;20410;-70
2023/04/07 02:21:35;;;;;;;120.73;106.83;;;6.80;17.10;;;;;;5033792;28;20413;-70
2023/04/07 02:24:01;;;;;;;170.27;155.73;;;6.90;17.20;;;;;;5034012;28;20985;-70
2023/04/07 02:26:27;;;;;;;184.33;169.90;;;6.90;17.10;;;;;;5033821;28;20783;-70
2023/04/07 02:28:52;;;;;;;195.77;180.50;;;6.90;17.10;;;;;;5032620;28;20430;-70
2023/04/07 02:31:18;;;;;;;310.07;289.43;;;7.00;16.70;;;;;;5034358;28;20645;-70
2023/04/07 02:33:43;;;;;;;178.47;163.87;;;7.00;16.70;;;;;;5034244;28;20179;-70
2023/04/07 02:36:09;;;;;;;144.13;130.33;;;7.00;17.20;;;;;;5033829;28;20256;-70
2023/04/07 02:38:34;;;;;;;161.70;147.67;;;7.10;16.80;;;;;;5033796;28;20278;-70
2023/04/07 02:41:00;;;;;;;188.10;173.03;;;7.10;17.00;;;;;;5033704;28;20183;-70
2023/04/07 02:43:25;;;;;;;222.10;204.50;;;7.10;16.10;;;;;;5032279;28;20172;-69
2023/04/07 02:45:51;;;;;;;262.47;241.23;;;7.10;16.00;;;;;;5034323;28;20436;-70
2023/04/07 02:48:17;;;;;;;226.23;208.80;;;7.20;16.10;;;;;;5034093;28;20199;-70
2023/04/07 02:50:42;;;;;;;355.47;329.17;;;7.20;16.00;;;;;;5034271;28;20191;-71
2023/04/07 02:53:08;;;;;;;298.43;275.67;;;7.20;16.00;;;;;;5034428;28;20262;-71
2023/04/07 02:55:33;;;;;;;211.83;194.37;;;7.20;16.10;;;;;;5034993;28;20881;-71
2023/04/07 02:57:59;;;;;;;271.37;253.33;;;7.20;15.80;;;;;;5034700;28;20195;-71
2023/04/07 03:00:25;;;;;;;239.80;223.97;;;7.30;15.70;;;;;;5035088;28;20176;-70
2023/04/07 03:02:50;;;;;;;107.77;93.23;;;7.30;15.60;;;;;;5034960;28;20254;-71
2023/04/07 03:05:16;;;;;;;189.67;174.80;;;7.30;15.10;;;;;;5035115;28;20186;-71
2023/04/07 03:07:41;;;;;;;154.90;139.53;;;7.40;14.80;;;;;;5034176;28;20717;-71
2023/04/07 03:10:07;;;;;;;209.90;193.73;;;7.30;14.80;;;;;;5033485;28;20261;-70
2023/04/07 03:12:33;;;;;;;195.23;178.03;;;7.40;15.30;;;;;;5032127;28;20179;-70
2023/04/07 03:14:59;;;;;;;94.13;71.30;;;7.30;15.50;;;;;;5032543;28;20225;-69
2023/04/07 03:17:24;;;;;;;450.77;423.03;;;7.30;15.80;;;;;;5033737;28;20203;-70
2023/04/07 03:19:50;;;;;;;188.60;173.30;;;7.30;15.50;;;;;;5035003;28;20172;-69
2023/04/07 03:22:16;;;;;;;402.07;375.13;;;7.40;15.60;;;;;;5033069;28;20555;-70
2023/04/07 03:24:42;;;;;;;244.67;225.83;;;7.40;15.70;;;;;;5034779;28;20402;-69
2023/04/07 03:27:07;;;;;;;211.20;196.07;;;7.30;15.90;;;;;;5032717;28;20207;-70
2023/04/07 03:29:33;;;;;;;318.80;296.43;;;7.30;16.00;;;;;;5034046;28;20230;-70
2023/04/07 03:31:58;;;;;;;159.83;146.20;;;7.30;16.00;;;;;;5033118;28;20247;-70
2023/04/07 03:34:24;;;;;;;203.93;188.17;;;7.30;16.10;;;;;;5033105;28;20665;-70
2023/04/07 03:36:49;;;;;;;137.17;124.43;;;7.30;16.20;;;;;;5033034;28;20576;-70
2023/04/07 03:39:15;;;;;;;127.50;115.07;;;7.30;16.10;;;;;;5033211;28;20262;-69
2023/04/07 03:41:40;;;;;;;456.63;429.10;;;7.30;16.10;;;;;;5031382;28;20187;-68
2023/04/07 03:44:06;;;;;;;241.23;222.97;;;7.20;16.60;;;;;;5032996;28;20172;-71
2023/04/07 03:46:32;;;;;;;152.07;139.13;;;7.20;16.70;;;;;;5032966;28;20242;-69
2023/04/07 03:48:57;;;;;;;185.83;170.27;;;7.10;17.00;;;;;;5031616;28;20183;-70
2023/04/07 03:51:23;;;;;;;96.00;77.27;;;7.20;16.60;;;;;;5031587;28;20751;-70
2023/04/07 03:53:48;;;;;;;216.23;199.33;;;7.30;16.40;;;;;;5032724;28;20210;-70
2023/04/07 03:56:14;;;;;;;180.00;164.63;;;7.30;16.00;;;;;;5033218;28;20211;-70
2023/04/07 03:58:41;;;;;;;180.07;165.67;;;7.30;16.20;;;;;;5033143;28;20540;-70
2023/04/07 04:01:07;;;;;;;215.63;199.30;;;7.20;16.20;;;;;;5032485;28;20163;-70
2023/04/07 04:03:33;;;;;;;147.50;133.10;;;7.20;16.30;;;;;;5033334;28;20505;-69
2023/04/07 04:05:59;;;;;;;211.73;196.57;;;7.20;16.50;;;;;;5033156;28;20505;-69
2023/04/07 04:08:24;;;;;;;117.90;105.53;;;7.20;16.30;;;;;;5033074;28;20513;-70
2023/04/07 04:10:51;;;;;;;146.77;133.80;;;7.20;16.40;;;;;;5032598;28;20661;-71
2023/04/07 04:13:16;;;;;;;215.43;199.60;;;7.20;16.50;;;;;;5032127;28;20644;-70
2023/04/07 04:15:42;;;;;;;319.77;297.63;;;7.10;16.50;;;;;;5032126;28;20548;-69
2023/04/07 04:18:08;;;;;;;239.93;221.27;;;7.10;16.50;;;;;;5031116;28;20734;-70
2023/04/07 04:20:33;;;;;;;215.80;198.67;;;7.10;16.80;;;;;;5032774;28;20418;-70
2023/04/07 04:22:59;;;;;;;211.63;196.23;;;7.10;16.80;;;;;;5030828;28;20221;-69
2023/04/07 04:25:25;;;;;;;271.20;253.90;;;7.10;16.80;;;;;;5032424;28;20172;-69
2023/04/07 04:27:50;;;;;;;246.53;227.17;;;7.00;17.20;;;;;;5055009;23;20649;-73
2023/04/07 04:30:16;;;;;;;228.60;212.60;;;7.00;17.20;;;;;;5031857;28;20646;-73
2023/04/07 04:32:41;;;;;;;223.77;208.23;;;7.00;17.20;;;;;;5030526;28;20175;-73
2023/04/07 04:35:07;;;;;;;289.13;271.40;;;7.10;17.20;;;;;;5031857;28;20214;-74
2023/04/07 04:37:33;;;;;;;384.90;360.50;;;7.10;17.00;;;;;;5030470;28;20690;-73
2023/04/07 04:39:59;;;;;;;422.47;396.53;;;7.10;17.20;;;;;;5031876;28;20410;-72
2023/04/07 04:42:26;;;;;;;227.47;211.13;;;7.10;17.20;;;;;;5031534;28;20218;-72
2023/04/07 04:44:52;;;;;;;260.83;242.70;;;7.10;17.30;;;;;;5031657;28;20175;-73
2023/04/07 04:47:18;;;;;;;312.20;293.50;;;7.10;17.20;;;;;;5031597;28;20434;-72
2023/04/07 04:49:43;;;;;;;145.40;131.63;;;7.10;17.20;;;;;;5031757;28;20180;-73
2023/04/07 04:52:09;;;;;;;243.93;224.73;;;7.20;17.30;;;;;;5030065;28;20513;-73
2023/04/07 04:54:34;;;;;;;133.67;120.63;;;7.10;17.20;;;;;;5031527;28;20191;-73
2023/04/07 04:57:00;;;;;;;279.47;262.43;;;7.20;17.30;;;;;;5031578;28;20592;-73
2023/04/07 04:59:26;;;;;;;147.33;133.73;;;7.20;17.30;;;;;;5031870;28;20198;-73
2023/04/07 05:01:51;;;;;;;277.23;259.73;;;7.20;17.30;;;;;;5031321;28;20172;-73
2023/04/07 05:04:17;;;;;;;189.73;174.47;;;7.10;17.20;;;;;;5031609;28;20262;-73
2023/04/07 05:06:43;;;;;;;336.33;315.53;;;7.10;17.20;;;;;;5031562;28;20178;-73
2023/04/07 05:09:08;;;;;;;263.13;246.50;;;7.10;17.30;;;;;;5030185;28;20215;-73
2023/04/07 05:11:34;;;;;;;249.00;232.37;;;7.20;17.30;;;;;;5029973;28;20426;-72
2023/04/07 05:14:00;;;;;;;231.13;215.67;;;7.20;17.30;;;;;;5033119;28;20210;-73
2023/04/07 05:16:25;;;;;;;247.17;229.70;;;7.20;17.30;;;;;;5033807;28;20294;-73
2023/04/07 05:18:51;;;;;;;278.67;260.30;;;7.20;17.30;;;;;;5035165;28;20195;-73
2023/04/07 05:21:19;;;;;;;167.07;153.13;;;7.20;17.30;;;;;;5035032;28;20174;-73
2023/04/07 05:23:44;;;;;;;314.40;294.57;;;7.20;17.60;;;;;;5033606;28;20183;-73
2023/04/07 05:26:10;;;;;;;292.53;273.00;;;7.20;17.30;;;;;;5033794;28;20434;-73
2023/04/07 05:28:36;;;;;;;256.93;239.57;;;7.10;17.70;;;;;;5033413;28;20496;-72
2023/04/07 05:31:01;;;;;;;204.47;189.87;;;7.10;17.30;;;;;;5034953;28;20183;-72
2023/04/07 05:33:27;;;;;;;249.83;231.80;;;7.20;17.30;;;;;;5033381;28;20187;-73
2023/04/07 05:35:52;;;;;;;106.17;94.87;;;7.20;17.30;;;;;;5034781;28;20257;-72
2023/04/07 05:38:18;;;;;;;230.73;213.60;;;7.30;17.40;;;;;;5034737;28;20214;-73
2023/04/07 05:40:44;;;;;;;322.27;300.93;;;7.30;17.40;;;;;;5034770;28;20262;-73
2023/04/07 05:43:10;;;;;;;223.60;206.40;;;7.30;17.40;;;;;;5034444;28;20202;-72
2023/04/07 05:45:35;;;;;;;100.27;85.33;;;7.30;17.40;;;;;;5033579;28;20859;-72
2023/04/07 05:48:01;;;;;;;535.97;502.87;;;7.40;17.50;;;;;;5033255;28;20203;-72
2023/04/07 05:50:26;;;;;;;240.40;224.17;;;7.40;17.60;;;;;;5033497;28;20187;-70
2023/04/07 05:52:52;;;;;;;114.53;102.27;;;7.40;17.20;;;;;;5034464;28;20183;-71
2023/04/07 05:55:17;;;;;;;161.30;147.87;;;7.30;17.40;;;;;;5034417;28;20208;-73
2023/04/07 05:57:43;;;;;;;208.63;193.73;;;7.40;17.40;;;;;;5034295;28;20200;-72
2023/04/07 06:00:09;;;;;;;213.23;197.73;;;7.50;17.50;;;;;;5034468;28;20183;-72
2023/04/07 06:02:35;;;;;;;203.93;189.23;;;7.60;17.50;;;;;;5034379;28;20342;-71
2023/04/07 06:05:00;;;;;;;233.53;217.00;;;7.60;17.50;;;;;;5034286;28;20918;-71
2023/04/07 06:07:26;;;;;;;182.03;167.27;;;7.60;16.80;;;;;;5034677;28;20280;-71
2023/04/07 06:09:51;;;;;;;269.50;251.17;;;7.50;17.50;;;;;;5034306;28;20584;-73
2023/04/07 06:12:17;;;;;;;219.23;203.53;;;7.60;17.50;;;;;;5033826;28;20248;-74
2023/04/07 06:14:50;;;;;;;98.90;73.43;;;7.70;17.40;;;;;;5029675;28;20217;-70
2023/04/07 06:17:15;;;;;;;255.00;237.23;;;7.70;16.80;;;;;;5032490;28;20214;-73
2023/04/07 06:19:41;;;;;;;106.00;90.37;;;7.90;16.20;;;;;;5018438;28;20438;-73
2023/04/07 06:22:07;;;;;;;236.83;220.93;;;7.70;16.60;;;;;;5013750;28;20176;-74
2023/04/07 06:24:32;;;;;;;133.83;121.83;;;7.80;16.40;;;;;;5029553;28;20184;-71
2023/04/07 06:27:00;;;;;;;226.07;209.20;;;7.90;16.50;;;;;;5033670;28;20181;-71
2023/04/07 06:29:25;;;;;;;108.03;94.17;;;8.00;39.00;;;;;;5034020;28;20206;-71
2023/04/07 06:31:51;;;;;;;236.10;219.50;;;8.10;16.00;;;;;;5033181;28;20439;-71
2023/04/07 06:34:17;;;;;;;239.00;222.20;;;8.20;15.10;;;;;;5033142;28;20711;-71
2023/04/07 06:36:42;;;;;;;304.40;284.50;;;8.20;15.20;;;;;;5016551;28;20585;-72
2023/04/07 06:39:08;;;;;;;94.47;67.63;;;8.30;15.20;;;;;;5012793;28;20181;-72
2023/04/07 06:41:33;;;;;;;250.07;230.77;;;8.50;14.20;;;;;;5013613;28;20252;-71
2023/04/07 06:43:59;;;;;;;199.50;183.40;;;8.60;13.90;;;;;;5013898;28;20264;-73
2023/04/07 06:46:25;;;;;;;226.93;210.00;;;8.70;14.00;;;;;;5027958;28;20215;-70
2023/04/07 06:48:51;;;;;;;447.93;419.50;;;8.80;13.80;;;;;;5033772;28;20202;-70
2023/04/07 06:51:17;;;;;;;283.10;264.03;;;8.90;13.70;;;;;;5033652;28;20426;-70
2023/04/07 06:53:43;;;;;;;218.73;201.63;;;9.20;23.50;;;;;;5033138;28;20697;-69
2023/04/07 06:56:10;;;;;;;182.77;167.57;;;9.40;12.70;;;;;;5033182;28;20307;-70
2023/04/07 06:58:36;;;;;;;248.67;230.33;;;9.50;12.60;;;;;;5033084;28;20457;-70
2023/04/07 07:01:04;;;;;;;426.70;398.13;;;9.80;11.90;;;;;;5033840;28;20418;-70
2023/04/07 07:03:30;;;;;;;144.80;132.07;;;10.10;12.70;;;;;;5032148;28;20790;-70
2023/04/07 07:06:00;;;;;;;424.60;398.03;;;10.60;9.50;;;;;;5033716;28;20488;-70
2023/04/07 07:08:26;;;;;;;302.87;282.13;;;11.20;7.90;;;;;;5033827;28;20461;-70
2023/04/07 07:10:52;;;;;;;133.27;120.93;;;11.50;7.10;;;;;;5032681;28;20468;-71
2023/04/07 07:13:18;;;;;;;470.80;442.33;;;11.30;6.10;;;;;;5022535;28;20860;-70
2023/04/07 07:15:44;;;;;;;377.20;351.43;;;11.40;6.20;;;;;;5032985;28;20464;-70
2023/04/07 07:18:11;;;;;;;452.60;423.20;;;11.10;6.60;;;;;;5031437;28;20444;-70
2023/04/07 07:20:36;;;;;;;481.20;449.17;;;10.90;7.20;;;;;;5033246;28;20497;-70
2023/04/07 07:23:02;;;;;;;188.80;172.37;;;10.80;7.10;;;;;;5031864;28;20491;-69
2023/04/07 07:25:29;;;;;;;474.03;444.10;;;10.80;7.20;;;;;;5033595;28;20523;-70
2023/04/07 07:27:54;;;;;;;334.47;312.13;;;11.10;6.00;;;;;;5032959;28;20215;-70
2023/04/07 07:30:21;;;;;;;370.37;345.97;;;11.30;5.60;;;;;;5033314;28;20418;-70
2023/04/07 07:32:47;;;;;;;495.17;464.37;;;11.30;5.70;;;;;;5032984;28;20179;-70
2023/04/07 07:35:13;;;;;;;304.80;283.57;;;11.50;5.90;;;;;;5031776;28;20454;-68
2023/04/07 07:37:38;;;;;;;352.20;328.33;;;11.90;4.90;;;;;;5032265;28;20254;-71
2023/04/07 07:40:04;;;;;;;458.37;429.07;;;11.80;4.70;;;;;;5031288;28;20791;-70
2023/04/07 07:42:30;;;;;;;439.00;407.23;;;12.00;5.00;;;;;;5016573;28;20214;-71
2023/04/07 07:44:56;;;;;;;406.73;378.90;;;12.20;3.70;;;;;;5032482;28;20481;-73
2023/04/07 07:47:22;;;;;;;165.67;152.60;;;12.30;3.50;;;;;;5031087;28;20191;-72
2023/04/07 07:49:48;;;;;;;366.00;340.53;;;12.40;2.60;;;;;;5032720;28;20419;-71
2023/04/07 07:52:13;;;;;;;500.90;466.83;;;12.60;2.50;;;;;;5032336;28;20245;-73
2023/04/07 07:54:39;;;;;;;461.27;430.20;;;12.80;1.60;;;;;;5032064;28;20183;-71
2023/04/07 07:57:05;;;;;;;304.70;281.07;;;12.90;1.80;;;;;;5030977;28;20191;-73
2023/04/07 07:59:31;;;;;;;326.90;303.60;;;12.90;1.10;;;;;;5032584;28;20187;-71
2023/04/07 08:01:57;;;;;;;397.23;369.23;;;13.00;1.00;;;;;;5033546;28;20183;-72
2023/04/07 08:04:23;;;;;;;356.20;331.33;;;12.40;1.00;;;;;;5012246;28;20888;-73
2023/04/07 08:06:49;;;;;;;219.97;201.73;;;12.80;1.40;;;;;;5012559;28;20443;-73
2023/04/07 08:09:15;;;;;;;305.40;283.60;;;13.20;1.00;;;;;;5012505;28;20179;-72
2023/04/07 08:11:41;;;;;;;365.13;338.67;;;13.60;1.00;;;;;;5018226;28;20437;-71
2023/04/07 08:14:06;;;;;;;430.47;399.80;;;13.80;1.00;;;;;;5023398;28;20473;-72
2023/04/07 08:16:32;;;;;;;354.00;328.47;;;13.90;1.00;;;;;;5031595;28;20212;-73
2023/04/07 08:18:58;;;;;;;163.53;149.27;;;14.60;1.00;;;;;;5025051;28;20230;-72
2023/04/07 08:21:23;;;;;;;436.27;405.80;;;14.90;1.00;;;;;;5032644;28;20626;-72
2023/04/07 08:23:49;;;;;;;417.27;388.73;;;14.70;1.00;;;;;;5032327;28;20171;-73
2023/04/07 08:26:14;;;;;;;414.47;384.43;;;14.30;1.00;;;;;;5031532;28;20179;-73
2023/04/07 08:28:40;;;;;;;446.13;414.57;;;14.40;1.00;;;;;;5027999;28;20224;-73
2023/04/07 08:31:06;;;;;;;356.47;330.37;;;14.40;1.00;;;;;;5015116;28;20190;-71
2023/04/07 08:33:31;;;;;;;278.53;257.53;;;14.90;1.00;;;;;;5009186;28;20217;-70
2023/04/07 08:35:57;;;;;;;277.67;255.93;;;15.00;1.00;;;;;;5026472;28;20506;-72
2023/04/07 08:38:23;;;;;;;362.33;335.50;;;14.90;1.00;;;;;;5009061;28;20725;-72
2023/04/07 08:40:58;;;;;;;356.00;329.87;;;14.90;1.00;;;;;;5008256;28;20425;-72
2023/04/07 08:43:25;;;;;;;426.60;396.33;;;14.90;1.00;;;;;;5016803;28;20183;-71
2023/04/07 08:45:54;;;;;;;133.43;120.63;;;14.90;1.00;;;;;;5009018;28;20427;-72
2023/04/07 08:48:24;;;;;;;437.87;407.03;;;15.50;1.00;;;;;;5017530;28;20461;-71
2023/04/07 08:50:51;;;;;;;477.20;442.47;;;15.60;1.00;;;;;;5032203;28;20456;-72
2023/04/07 08:53:22;;;;;;;139.60;125.90;;;15.50;1.00;;;;;;5032075;28;20422;-73
2023/04/07 08:55:48;;;;;;;191.53;174.40;;;14.90;1.00;;;;;;5031537;28;20465;-71
2023/04/07 08:58:15;;;;;;;262.03;241.07;;;14.80;1.00;;;;;;5032524;28;20441;-73
2023/04/07 09:00:45;;;;;;;371.57;344.80;;;14.60;1.00;;;;;;5031548;28;20566;-73
2023/04/07 09:03:10;;;;;;;583.23;543.20;;;14.60;1.00;;;;;;5030963;28;20422;-72
2023/04/07 09:05:37;;;;;;;535.73;499.40;;;14.40;1.00;;;;;;5032269;28;20432;-73
2023/04/07 09:08:03;;;;;;;514.63;481.63;;;13.90;1.00;;;;;;5031942;28;20272;-73
2023/04/07 09:10:29;;;;;;;403.37;376.17;;;13.70;1.00;;;;;;5030383;28;20504;-70
2023/04/07 09:12:54;;;;;;;448.00;417.50;;;13.30;1.00;;;;;;5029563;28;20190;-70
2023/04/07 09:15:21;;;;;;;448.63;418.37;;;13.10;1.00;;;;;;5029612;28;20445;-71
2023/04/07 09:17:47;;;;;;;455.33;423.77;;;13.10;1.00;;;;;;5030707;28;20197;-70
2023/04/07 09:20:12;;;;;;;460.60;428.10;;;13.30;1.00;;;;;;5031659;28;20413;-70
2023/04/07 09:22:47;;;;;;;502.50;468.60;;;13.20;1.00;;;;;;5030386;28;20419;-71
2023/04/07 09:25:19;;;;;;;416.27;388.60;;;13.20;1.00;;;;;;5026231;28;20556;-71
2023/04/07 09:28:02;;;;;;;550.83;512.50;;;13.40;1.00;;;;;;5011182;28;20464;-71
2023/04/07 09:30:29;;;;;;;323.53;300.50;;;13.60;1.00;;;;;;5011585;28;20536;-71
2023/04/07 09:32:56;;;;;;;176.80;161.20;;;13.40;1.00;;;;;;5015547;28;20924;-70
2023/04/07 09:35:22;;;;;;;286.40;264.13;;;13.30;1.00;;;;;;5031397;28;20467;-71
2023/04/07 09:38:08;;;;;;;402.57;374.20;;;13.10;1.00;;;;;;5030871;28;20495;-70
2023/04/07 09:40:35;;;;;;;314.50;291.03;;;13.10;1.00;;;;;;5029035;28;20437;-70
2023/04/07 09:43:03;;;;;;;367.80;341.33;;;13.00;1.00;;;;;;5028757;28;20430;-72
2023/04/07 09:45:31;;;;;;;321.87;298.27;;;12.90;1.00;;;;;;5031375;28;20861;-72
2023/04/07 09:47:56;;;;;;;291.97;270.50;;;12.90;1.00;;;;;;5030265;28;20445;-73
2023/04/07 09:50:37;;;;;;;158.00;143.67;;;13.00;1.00;;;;;;5030273;28;20510;-69
2023/04/07 09:53:03;;;;;;;334.93;310.63;;;13.10;1.00;;;;;;5025582;28;20281;-70
2023/04/07 09:55:29;;;;;;;248.20;229.43;;;13.20;1.00;;;;;;5030957;28;20981;-70
2023/04/07 09:57:55;;;;;;;222.17;204.10;;;13.40;1.00;;;;;;5029946;28;20202;-71
2023/04/07 10:00:22;;;;;;;354.63;328.57;;;13.60;1.00;;;;;;5028484;28;20423;-71
2023/04/07 10:02:49;;;;;;;350.90;325.43;;;13.70;1.00;;;;;;5027870;28;20431;-70
2023/04/07 10:05:15;;;;;;;487.20;453.50;;;13.70;1.00;;;;;;5012735;28;20430;-70
2023/04/07 10:07:42;;;;;;;370.50;344.33;;;13.90;1.00;;;;;;5013983;28;20440;-71
2023/04/07 10:10:08;;;;;;;494.67;459.57;;;14.20;1.00;;;;;;5014460;28;20436;-70
2023/04/07 10:12:36;;;;;;;522.27;485.70;;;14.50;1.00;;;;;;5015443;28;20820;-70
2023/04/07 10:15:02;;;;;;;441.00;408.07;;;14.80;1.00;;;;;;5012610;28;20442;-70
2023/04/07 10:17:29;;;;;;;354.37;328.13;;;15.00;1.00;;;;;;5031043;28;20450;-71
2023/04/07 10:19:57;;;;;;;434.87;403.57;;;14.70;1.00;;;;;;5034082;28;20410;-70
2023/04/07 10:22:24;;;;;;;460.37;427.37;;;14.70;1.00;;;;;;5033756;28;20532;-70
2023/04/07 10:24:59;;;;;;;484.40;447.63;;;15.00;1.00;;;;;;5033594;28;20444;-69
2023/04/07 10:27:35;;;;;;;396.60;367.43;;;14.90;1.00;;;;;;5034130;28;20549;-70
2023/04/07 10:30:04;;;;;;;280.70;259.07;;;14.70;1.00;;;;;;5033657;28;20414;-70
2023/04/07 10:32:29;;;;;;;492.40;457.60;;;14.60;1.00;;;;;;5031793;28;20428;-70
2023/04/07 10:34:56;;;;;;;441.23;409.20;;;14.50;1.00;;;;;;5033542;28;20555;-71
2023/04/07 10:37:23;;;;;;;296.27;274.17;;;14.40;1.00;;;;;;5033385;28;20199;-71
2023/04/07 10:40:08;;;;;;;427.80;397.13;;;14.50;1.00;;;;;;5033813;28;20453;-71
2023/04/07 10:42:36;;;;;;;307.60;284.70;;;14.80;1.00;;;;;;5033377;28;20417;-69
2023/04/07 10:45:03;;;;;;;450.50;418.80;;;15.10;1.00;;;;;;5033290;28;20422;-70
2023/04/07 10:47:29;;;;;;;207.97;190.93;;;15.70;1.00;;;;;;5033245;28;20926;-71
2023/04/07 10:50:17;;;;;;;415.60;386.63;;;16.40;1.00;;;;;;5033818;28;20453;-70
2023/04/07 10:52:45;;;;;;;390.90;361.57;;;17.30;1.00;;;;;;5033003;28;20410;-71
2023/04/07 10:55:29;;;;;;;641.43;596.63;;;18.00;1.00;;;;;;5033082;28;21050;-71
2023/04/07 10:58:14;;;;;;;362.07;334.07;;;18.30;1.00;;;;;;5033207;28;21053;-71
2023/04/07 11:00:39;;;;;;;498.93;463.37;;;18.00;1.00;;;;;;5033202;28;20994;-70
2023/04/07 11:03:12;;;;;;;674.83;627.73;;;17.30;1.00;;;;;;5032555;28;20501;-69
2023/04/07 11:05:41;;;;;;;178.20;163.13;;;16.90;1.00;;;;;;5033025;28;20175;-71
2023/04/07 11:08:07;;;;;;;602.43;560.17;;;16.80;1.00;;;;;;5031535;28;20433;-72
2023/04/07 11:10:34;;;;;;;574.63;534.10;;;17.10;1.00;;;;;;5033026;28;20973;-74
2023/04/07 11:13:00;;;;;;;525.10;488.23;;;17.40;1.00;;;;;;5018939;28;20214;-72
2023/04/07 11:15:25;;;;;;;263.17;243.17;;;17.90;1.00;;;;;;5013216;28;20462;-68
2023/04/07 11:18:07;;;;;;;128.40;116.53;;;18.00;1.00;;;;;;5013663;28;20735;-73
2023/04/07 11:20:45;;;;;;;510.67;474.53;;;18.00;1.00;;;;;;5013028;28;20226;-74
2023/04/07 11:23:12;;;;;;;351.10;324.67;;;17.70;1.00;;;;;;5012851;28;20494;-74
2023/04/07 11:25:38;;;;;;;594.80;552.93;;;17.50;1.00;;;;;;5013273;28;20497;-73
2023/04/07 11:28:04;;;;;;;660.00;611.93;;;17.20;1.00;;;;;;5027840;28;20540;-73
2023/04/07 11:30:30;;;;;;;341.97;316.67;;;16.60;1.00;;;;;;5032471;28;20415;-74
2023/04/07 11:32:56;;;;;;;373.47;347.43;;;16.20;1.00;;;;;;5032211;28;20424;-73
2023/04/07 11:35:22;;;;;;;305.27;281.30;;;16.50;1.00;;;;;;5032017;28;20626;-74
2023/04/07 11:37:48;;;;;;;484.03;450.53;;;16.40;1.00;;;;;;5030981;28;20445;-74
2023/04/07 11:40:33;;;;;;;343.80;318.80;;;16.40;1.00;;;;;;5032241;28;20453;-74
2023/04/07 11:42:58;;;;;;;389.13;359.53;;;16.60;1.00;;;;;;5031769;28;20175;-73
2023/04/07 11:45:24;;;;;;;469.53;435.80;;;17.00;1.00;;;;;;5032018;28;20553;-73
2023/04/07 11:47:49;;;;;;;571.90;530.57;;;17.00;1.00;;;;;;5032010;28;20206;-73
2023/04/07 11:50:15;;;;;;;388.80;360.27;;;16.80;1.00;;;;;;5032048;28;20176;-74
2023/04/07 11:52:45;;;;;;;434.83;403.83;;;16.50;1.00;;;;;;5031529;28;20687;-74
2023/04/07 11:55:18;;;;;;;671.73;621.97;;;16.10;1.00;;;;;;5031778;28;20206;-75
2023/04/07 11:57:44;;;;;;;679.50;631.20;;;15.80;1.00;;;;;;5031563;28;20471;-73
2023/04/07 12:00:11;;;;;;;168.73;153.40;;;15.30;1.00;;;;;;5031728;28;20414;-73
2023/04/07 12:02:37;;;;;;;634.77;587.83;;;14.60;1.00;;;;;;5030435;28;20172;-73
2023/04/07 12:05:03;;;;;;;571.97;532.90;;;14.10;1.00;;;;;;5012101;28;20494;-73
2023/04/07 12:07:29;;;;;;;592.03;552.13;;;14.30;1.00;;;;;;5027181;28;20444;-71
2023/04/07 12:09:56;;;;;;;401.47;372.03;;;14.40;1.00;;;;;;5012113;28;20417;-73
2023/04/07 12:12:27;;;;;;;278.73;257.97;;;14.50;1.00;;;;;;5022716;28;20206;-74
2023/04/07 12:14:52;;;;;;;362.07;333.83;;;14.40;1.00;;;;;;5027089;28;21201;-73
2023/04/07 12:17:22;;;;;;;316.73;294.17;;;14.40;1.00;;;;;;5011802;28;20452;-71
2023/04/07 12:19:47;;;;;;;448.73;418.93;;;14.50;1.00;;;;;;5011951;28;20441;-71